Latest Weather Observations for Jandakot

IDW60901

Issued at 11:31 pm WST Wednesday 19 December 2018 (issued every 10 minutes, with the page automatically refreshed every 10 minutes)

About weather observations | Map of Perth area stations | Latest observations for Perth area | Other Formats
Station Details ID: 009172 Name: JANDAKOT AERO Lat: -32.10 Lon: 115.88 Height: 30.0 m
Data from the previous 72 hours. | See also: Recent months at Jandakot
Date/Time
WST
Temp
°C
App
Temp
°C
Dew
Point
°C
Rel
Hum
%
Delta-T
°C
Wind Press
QNH
hPa
Press
MSL
hPa
Rain since
9am
mm
Dir  Spd
km/h
Gust
km/h
Spd
kts
Gust
kts
19/11:30pm 18.4 16.5 14.3 77 2.4 SSE 17 20 9 11 1018.9 1018.8 0.0
19/11:00pm 19.1 17.2 14.1 73 2.9 S 17 22 9 12 1019.0 1018.9 0.0
19/10:30pm 19.6 17.3 14.2 71 3.1 S 19 22 10 12 1019.1 1019.0 0.0
19/10:00pm 20.1 17.8 14.2 69 3.4 S 19 24 10 13 1019.1 1019.0 0.0
19/09:30pm 20.4 18.5 14.1 67 3.7 S 17 24 9 13 1019.0 1018.9 0.0
19/09:00pm 20.5 19.0 14.2 67 3.7 SSW 15 20 8 11 1018.9 1018.8 0.0
19/08:30pm 20.7 19.1 13.9 65 3.9 SSW 15 19 8 10 1018.7 1018.6 0.0
19/08:00pm 21.1 19.5 14.0 64 4.1 SSW 15 20 8 11 1018.5 1018.4 0.0
19/07:30pm 21.4 19.3 13.6 61 4.5 SW 17 26 9 14 1018.3 1018.2 0.0
19/07:00pm 22.1 19.6 13.5 58 5.0 SW 19 24 10 13 1018.1 1018.0 0.0
19/06:30pm 22.5 19.1 13.8 58 5.1 SW 24 30 13 16 1018.0 1017.9 0.0
19/06:00pm 23.0 19.1 13.2 54 5.6 SW 26 35 14 19 1017.9 1017.8 0.0
19/05:30pm 23.5 18.2 12.5 50 6.3 SW 32 39 17 21 1017.7 1017.6 0.0
19/05:00pm 24.1 18.8 11.4 45 7.1 SSW 30 41 16 22 1017.5 1017.4 0.0
19/04:30pm 24.4 18.6 10.7 42 7.6 SW 32 41 17 22 1017.5 1017.4 0.0
19/04:00pm 24.8 19.3 11.7 44 7.4 SW 32 39 17 21 1017.4 1017.3 0.0
19/03:30pm 25.4 19.4 10.8 40 8.2 WSW 33 43 18 23 1017.4 1017.3 0.0
19/03:00pm 25.5 19.8 11.3 41 8.0 WSW 32 39 17 21 1017.5 1017.4 0.0
19/02:30pm 25.2 19.8 12.1 44 7.5 SW 32 39 17 21 1017.8 1017.7 0.0
19/02:00pm 25.1 19.9 11.6 42 7.6 WSW 30 41 16 22 1018.0 1017.9 0.0
19/01:30pm 26.0 21.2 11.7 41 8.2 SW 28 37 15 20 1018.3 1018.2 0.0
19/01:00pm 25.4 21.0 11.6 42 7.8 SW 26 37 14 20 1018.5 1018.4 0.0
19/12:30pm 25.6 21.1 11.4 41 8.1 SW 26 32 14 17 1018.7 1018.6 0.0
19/12:00pm 26.2 22.5 10.0 36 9.0 SW 20 33 11 18 1019.0 1018.9 0.0
19/11:30am 26.1 23.7 8.6 33 9.5 SSE 11 19 6 10 1019.4 1019.3 0.0
19/11:00am 25.4 22.2 8.4 34 9.1 SE 15 24 8 13 1019.6 1019.5 0.0
19/10:30am 24.3 20.9 9.1 38 8.2 SE 17 26 9 14 1019.8 1019.7 0.0
19/10:00am 23.7 22.0 9.7 41 7.6 ESE 9 15 5 8 1020.0 1019.9 0.0
19/09:30am 22.7 20.2 9.8 44 7.0 E 13 20 7 11 1020.0 1019.9 0.0
19/09:00am 22.2 18.6 10.0 46 6.6 ESE 19 22 10 12 1020.2 1020.1 0.0
19/08:30am 20.8 16.7 10.0 50 5.8 ESE 22 32 12 17 1020.3 1020.2 0.0
19/08:00am 20.1 16.6 10.8 55 5.1 ESE 20 32 11 17 1020.5 1020.4 0.0
19/07:30am 19.2 15.7 11.0 59 4.5 ESE 20 26 11 14 1020.4 1020.3 0.0
19/07:00am 18.4 15.0 11.2 63 3.9 ESE 20 24 11 13 1020.4 1020.3 0.0
19/06:30am 17.3 13.9 11.1 67 3.3 E 20 28 11 15 1020.2 1020.1 0.0
19/06:00am 16.6 13.4 11.3 71 2.9 ESE 19 28 10 15 1019.9 1019.8 0.0
19/05:30am 16.1 12.9 11.3 73 2.6 E 19 24 10 13 1019.5 1019.4 0.0
19/05:00am 15.7 12.8 11.1 74 2.5 ESE 17 24 9 13 1019.2 1019.1 0.0
19/04:30am 16.4 13.1 11.6 73 2.6 ESE 20 26 11 14 1018.8 1018.7 0.0
19/04:00am 16.7 13.6 11.6 72 2.8 E 19 24 10 13 1018.4 1018.3 0.0
19/03:30am 17.5 14.2 11.5 68 3.3 E 20 28 11 15 1018.2 1018.1 0.0
19/03:00am 18.0 14.6 11.3 65 3.6 ESE 20 26 11 14 1017.7 1017.6 0.0
19/02:30am 18.7 14.9 11.3 62 4.0 ESE 22 30 12 16 1017.5 1017.4 0.0
19/02:00am 18.5 15.6 11.1 62 4.0 SE 17 22 9 12 1017.5 1017.4 0.0
19/01:30am 18.2 16.1 11.3 64 3.8 SSE 13 19 7 10 1017.3 1017.2 0.0
19/01:00am 16.1 15.0 12.1 77 2.2 SSE 9 15 5 8 1017.2 1017.1 0.0
19/12:30am 16.2 15.5 13.1 82 1.7 S 9 11 5 6 1017.2 1017.1 0.0
19/12:00am 17.3 15.7 13.8 80 2.0 S 15 17 8 9 1017.4 1017.3 0.0
 
Date/Time
WST
Temp
°C
App
Temp
°C
Dew
Point
°C
Rel
Hum
%
Delta-T
°C
Wind Press
QNH
hPa
Press
MSL
hPa
Rain since
9am
mm
Dir  Spd
km/h
Gust
km/h
Spd
kts
Gust
kts
18/11:30pm 17.5 15.9 14.0 80 2.0 S 15 17 8 9 1017.4 1017.3 0.0
18/11:00pm 17.8 17.0 13.9 78 2.2 S 11 15 6 8 1017.5 1017.4 0.0
18/10:30pm 18.2 17.4 13.9 76 2.5 S 11 13 6 7 1017.7 1017.6 0.0
18/10:00pm 19.1 17.9 13.9 72 3.0 S 13 17 7 9 1017.7 1017.6 0.0
18/09:30pm 19.4 18.3 14.2 72 3.0 S 13 17 7 9 1017.7 1017.6 0.0
18/09:00pm 19.7 18.5 15.1 75 2.7 SSW 15 19 8 10 1017.5 1017.4 0.0
18/08:30pm 19.8 18.5 15.7 77 2.4 SSW 17 24 9 13 1017.4 1017.3 0.0
18/08:00pm 20.0 17.5 15.2 74 2.8 SSW 22 28 12 15 1017.4 1017.3 0.0
18/07:30pm 20.3 17.3 14.7 70 3.3 SSW 24 32 13 17 1017.3 1017.2 0.0
18/07:00pm 21.0 17.8 14.2 65 4.0 SSW 24 33 13 18 1017.0 1016.9 0.0
18/06:30pm 21.8 18.0 13.7 60 4.7 SSW 26 33 14 18 1016.7 1016.6 0.0
18/06:00pm 22.3 18.2 13.9 59 4.9 SSW 28 35 15 19 1016.5 1016.4 0.0
18/05:30pm 23.0 18.6 12.9 53 5.8 SSW 28 35 15 19 1016.3 1016.2 0.0
18/05:00pm 23.5 19.2 13.1 52 6.0 SW 28 35 15 19 1016.2 1016.1 0.0
18/04:30pm 24.1 19.2 12.7 49 6.6 SW 30 37 16 20 1016.1 1016.0 0.0
18/04:00pm 23.6 18.8 12.9 51 6.2 WSW 30 35 16 19 1016.2 1016.1 0.0
18/03:30pm 24.4 20.0 13.0 49 6.6 SW 28 33 15 18 1016.3 1016.2 0.0
18/03:00pm 24.2 19.7 12.5 48 6.7 SW 28 35 15 19 1016.5 1016.4 0.0
18/02:30pm 24.3 19.7 13.5 51 6.3 WSW 30 37 16 20 1016.8 1016.7 0.0
18/02:00pm 23.4 18.0 12.7 51 6.1 WSW 33 41 18 22 1017.0 1016.9 0.0
18/01:30pm 23.9 19.3 13.4 51 6.1 WSW 30 37 16 20 1017.1 1017.0 0.0
18/01:00pm 23.9 19.3 13.4 51 6.1 WSW 30 39 16 21 1017.4 1017.3 0.0
18/12:30pm 23.3 18.4 12.6 51 6.1 WSW 30 41 16 22 1017.5 1017.4 0.0
18/12:00pm 23.1 18.8 12.1 50 6.2 SW 26 35 14 19 1017.8 1017.7 0.0
18/11:30am 23.2 19.1 11.6 48 6.5 SW 24 35 13 19 1017.8 1017.7 0.0
18/11:00am 24.2 21.5 9.0 38 8.2 SSE 13 24 7 13 1018.0 1017.9 0.0
18/10:30am 22.9 20.9 10.0 44 7.0 ESE 11 20 6 11 1018.0 1017.9 0.0
18/10:00am 22.1 20.1 10.3 47 6.4 ESE 11 17 6 9 1018.1 1018.0 0.0
18/09:30am 21.1 18.8 10.3 50 5.9 ESE 13 20 7 11 1018.3 1018.2 0.0
18/09:00am 21.1 19.5 11.4 54 5.4 SE 11 20 6 11 1018.4 1018.3 0.0
18/08:30am 20.1 18.2 11.8 59 4.6 SE 13 17 7 9 1018.3 1018.2 0.0
18/08:00am 19.2 17.3 11.7 62 4.1 SE 13 19 7 10 1018.3 1018.2 0.0
18/07:30am 18.4 16.1 11.9 66 3.6 ESE 15 19 8 10 1018.1 1018.0 0.0
18/07:00am 17.5 14.9 12.0 70 3.0 SE 17 22 9 12 1018.1 1018.0 0.0
18/06:30am 16.4 15.1 12.6 78 2.1 SSE 11 17 6 9 1017.9 1017.8 0.0
18/06:00am 15.2 14.3 12.5 84 1.5 SSE 9 13 5 7 1017.5 1017.4 0.0
18/05:30am 14.1 12.3 12.1 88 1.1 S 13 17 7 9 1017.4 1017.3 0.0
18/05:00am 14.0 12.2 12.2 89 1.0 S 13 15 7 8 1017.0 1016.9 0.0
18/04:30am 14.2 12.7 11.9 86 1.2 S 11 13 6 7 1016.7 1016.6 0.0
18/04:00am 14.7 13.6 11.8 83 1.6 SSE 9 11 5 6 1016.2 1016.1 0.0
18/03:30am 15.6 13.3 11.8 78 2.1 SE 15 20 8 11 1015.9 1015.8 0.0
18/03:00am 15.9 13.6 11.9 77 2.2 SE 15 20 8 11 1015.7 1015.6 0.0
18/02:30am 16.1 13.8 11.7 75 2.4 SE 15 20 8 11 1015.6 1015.5 0.0
18/02:00am 16.8 15.3 11.9 73 2.7 SE 11 15 6 8 1015.5 1015.4 0.0
18/01:30am 17.5 14.3 11.3 67 3.4 SE 19 24 10 13 1015.4 1015.3 0.0
18/01:00am 17.9 14.8 11.7 67 3.4 SE 19 24 10 13 1015.3 1015.2 0.0
18/12:30am 18.4 15.4 11.9 66 3.6 ESE 19 26 10 14 1015.3 1015.2 0.0
18/12:00am 18.8 16.3 12.3 66 3.6 SE 17 22 9 12 1015.5 1015.4 0.0
 
Date/Time
WST
Temp
°C
App
Temp
°C
Dew
Point
°C
Rel
Hum
%
Delta-T
°C
Wind Press
QNH
hPa
Press
MSL
hPa
Rain since
9am
mm
Dir  Spd
km/h
Gust
km/h
Spd
kts
Gust
kts
17/11:30pm 19.7 16.9 12.5 63 4.0 SE 19 26 10 14 1015.4 1015.3 0.0
17/11:00pm 20.2 17.3 12.2 60 4.5 SE 19 24 10 13 1015.4 1015.3 0.0
17/10:30pm 21.0 17.5 12.2 57 4.9 SE 22 32 12 17 1015.4 1015.3 0.0
17/10:00pm 20.9 18.7 13.4 62 4.3 SSE 17 22 9 12 1015.3 1015.2 0.0
17/09:30pm 20.8 19.2 14.9 69 3.5 S 17 20 9 11 1015.1 1015.0 0.0
17/09:00pm 21.1 19.7 15.6 71 3.3 S 17 22 9 12 1014.7 1014.6 0.0
17/08:30pm 21.4 19.6 15.9 71 3.3 SSW 20 24 11 13 1014.4 1014.3 0.0
17/08:00pm 21.5 18.9 16.0 71 3.3 SSW 24 32 13 17 1014.1 1014.0 0.0
17/07:30pm 21.6 19.2 16.3 72 3.2 SSW 24 30 13 16 1013.8 1013.7 0.0
17/07:00pm 22.2 18.4 15.8 67 3.8 SSW 30 39 16 21 1013.4 1013.3 0.0
17/06:30pm 22.7 18.9 15.8 65 4.2 SSW 30 41 16 22 1013.1 1013.0 0.0
17/06:00pm 23.3 18.6 14.8 59 5.1 SSW 33 46 18 25 1012.7 1012.6 0.0
17/05:30pm 23.5 17.6 14.8 58 5.2 SW 39 48 21 26 1012.2 1012.1 0.0
17/05:00pm 24.4 19.7 14.2 53 6.0 SW 32 44 17 24 1012.0 1011.9 0.0
17/04:30pm 25.3 20.3 14.1 50 6.6 SW 33 44 18 24 1011.8 1011.7 0.0
17/04:00pm 25.4 19.5 13.6 48 6.9 SW 37 46 20 25 1011.6 1011.5 0.0
17/03:30pm 25.5 20.1 14.0 49 6.8 SW 35 46 19 25 1011.7 1011.6 0.0
17/03:00pm 25.8 20.5 14.3 49 6.9 SW 35 48 19 26 1012.1 1012.0 0.0
17/02:30pm 25.7 20.3 15.1 52 6.4 SW 37 50 20 27 1012.3 1012.2 0.0
17/02:00pm 24.8 19.5 14.3 52 6.2 WSW 35 46 19 25 1012.4 1012.3 0.0
17/01:30pm 25.2 19.2 13.4 48 6.9 SW 37 50 20 27 1012.4 1012.3 0.0
17/01:05pm 25.5 21.5 14.0 49 6.8 SW 28 48 15 26 1012.6 1012.5 0.0
17/01:00pm 24.8 20.6 13.4 49 6.7 WSW 28 41 15 22 1012.8 1012.7 0.0
17/12:30pm 27.3 23.2 8.7 31 10.2 SSE 20 30 11 16 1012.9 1012.8 0.0
17/12:00pm 25.7 21.6 8.7 34 9.2 SE 20 35 11 19 1013.0 1012.9 0.0
17/11:30am 24.9 20.7 9.6 38 8.4 S 22 32 12 17 1013.3 1013.2 0.0
17/11:00am 23.8 19.6 9.8 41 7.7 S 22 41 12 22 1013.6 1013.5 0.0
17/10:30am 23.6 19.6 10.6 44 7.2 SSE 22 33 12 18 1013.6 1013.5 0.0
17/10:00am 22.9 19.1 11.0 47 6.6 S 22 32 12 17 1013.7 1013.6 0.0
17/09:30am 22.2 18.1 11.3 50 6.1 S 24 37 13 20 1013.9 1013.8 0.0
17/09:00am 20.8 17.2 11.7 56 5.1 SSE 22 35 12 19 1013.7 1013.6 0.0
17/08:30am 20.4 17.2 11.9 58 4.7 SE 20 30 11 16 1013.9 1013.8 0.0
17/08:00am 19.0 16.2 12.5 66 3.6 S 19 24 10 13 1013.9 1013.8 0.0
17/07:30am 17.7 15.3 12.6 72 2.8 S 17 24 9 13 1013.5 1013.4 0.0
17/07:00am 17.2 14.8 12.7 75 2.5 S 17 20 9 11 1013.4 1013.3 0.0
17/06:30am 16.2 13.4 12.7 80 1.9 S 19 20 10 11 1013.0 1012.9 0.0
17/06:00am 15.9 13.5 12.8 82 1.7 S 17 20 9 11 1012.6 1012.5 0.0
17/05:30am 14.8 13.2 12.7 87 1.2 SSE 13 19 7 10 1012.0 1011.9 0.0
17/05:00am 15.0 13.0 12.7 86 1.3 S 15 19 8 10 1011.6 1011.5 0.0
17/04:30am 15.3 13.3 12.6 84 1.5 S 15 19 8 10 1011.3 1011.2 0.0
17/04:00am 15.7 14.4 12.5 81 1.8 S 11 15 6 8 1011.0 1010.9 0.0
17/03:30am 16.2 14.1 12.4 78 2.1 S 15 19 8 10 1010.5 1010.4 0.0
17/03:00am 16.3 14.1 12.1 76 2.3 SSE 15 22 8 12 1010.2 1010.1 0.0
17/02:30am 16.9 13.7 11.8 72 2.8 SE 20 26 11 14 1010.0 1009.9 0.0
17/02:00am 17.2 12.8 11.7 70 3.0 SE 26 35 14 19 1009.8 1009.7 0.0
17/01:30am 17.2 14.1 11.7 70 3.0 SE 19 24 10 13 1010.1 1010.0 0.0
17/01:00am 17.4 13.4 11.7 69 3.1 SE 24 32 13 17 1010.1 1010.0 0.0
17/12:30am 17.9 13.9 11.9 68 3.3 SSE 24 32 13 17 1010.2 1010.1 0.0
17/12:00am 18.4 14.2 12.4 68 3.3 SE 26 39 14 21 1010.3 1010.2 0.0

Latest Capital City Observations: Canberra | Sydney | Melbourne | Brisbane | Adelaide | Perth | Hobart | Darwin

Other Formats:

Comma delimited format used in spreadsheet applications
http://www.bom.gov.au/fwo/IDW60901/IDW60901.94609.axf

JavaScript Object Notation format (JSON) in row-major order
http://www.bom.gov.au/fwo/IDW60901/IDW60901.94609.json